Terminal Aerodrome Forecast
Issued by NWS

Home | Current Version | Previous Version | Text Only | Print | Product List | Glossary On
Versions: 1 2 3 4 5 6 7 8 9 10 11 12 13 14 15 16 17 18 19 20 21 22 23 24
221
FTUS43 KICT 210522
TAFCNU
TAF
KCNU 210522Z 2106/2206 33005KT P6SM BKN025
     FM210900 34005KT 5SM BR BKN015
     FM211100 36004KT 2SM BR OVC010
     FM211200 35004KT 1SM BR OVC006
     FM211400 35004KT 3SM BR OVC012
     FM211500 35004KT P6SM BKN020
     FM211700 35006KT P6SM SCT035
     FM211900 VRB03KT P6SM SKC=

USA.gov is the U.S. government's official web portal to all federal, state and local government web resources and services.